Time;durP1;ratioP1;P1;durP2;ratioP2;P2;SDS_P1;SDS_P2;PMS_P1;PMS_P2;Temp;Humidity;BMP_temperature;BMP_pressure;BME280_temperature;BME280_humidity;BME280_pressure;Samples;Min_cycle;Max_cycle;Signal;HPM_P1;HPM_P2
2021/10/06 04:01:44;;;;;;;1.50;1.40;;;11.60;99.90;;;;;;5409189;23;20484;-70
2021/10/06 04:04:11;;;;;;;2.30;1.70;;;11.50;99.90;;;;;;5015644;28;20449;-70
2021/10/06 04:06:38;;;;;;;4.73;2.80;;;11.50;99.90;;;;;;5015632;28;20547;-70
2021/10/06 04:09:04;;;;;;;2.93;1.60;;;11.50;99.90;;;;;;5015910;28;20457;-70
2021/10/06 04:11:31;;;;;;;3.80;1.53;;;11.50;99.90;;;;;;5015736;28;20480;-70
2021/10/06 04:13:58;;;;;;;2.00;1.60;;;11.60;99.90;;;;;;5015959;28;20480;-70
2021/10/06 04:16:25;;;;;;;6.50;1.90;;;11.50;99.90;;;;;;5016321;28;20453;-70
2021/10/06 04:18:53;;;;;;;4.23;1.30;;;11.50;99.90;;;;;;5015293;28;20449;-71
2021/10/06 04:21:20;;;;;;;2.97;1.40;;;11.40;99.90;;;;;;5015565;28;20480;-70
2021/10/06 04:23:47;;;;;;;1.37;1.30;;;11.40;99.90;;;;;;5015717;28;20548;-70
2021/10/06 04:26:14;;;;;;;3.47;1.83;;;11.50;99.90;;;;;;5015556;28;20467;-70
2021/10/06 04:28:41;;;;;;;1.40;1.30;;;11.50;99.90;;;;;;5015498;28;20452;-70
2021/10/06 04:31:07;;;;;;;1.50;1.40;;;11.60;99.90;;;;;;5015226;28;20879;-70
2021/10/06 04:33:34;;;;;;;1.83;1.73;;;11.60;99.90;;;;;;5015267;28;20453;-70
2021/10/06 04:36:02;;;;;;;1.63;1.47;;;11.60;99.90;;;;;;5014314;28;20875;-70
2021/10/06 04:38:29;;;;;;;1.40;1.30;;;11.60;99.90;;;;;;5015200;28;20453;-70
2021/10/06 04:40:55;;;;;;;1.40;1.20;;;11.50;99.90;;;;;;5015755;28;20473;-70
2021/10/06 04:43:22;;;;;;;6.60;1.30;;;11.50;99.90;;;;;;5015050;28;20452;-70
2021/10/06 04:45:49;;;;;;;1.90;1.43;;;11.50;99.90;;;;;;5015142;28;20459;-70
2021/10/06 04:48:15;;;;;;;1.60;1.50;;;11.50;99.90;;;;;;5015227;28;20821;-71
2021/10/06 04:50:42;;;;;;;1.23;1.00;;;11.50;99.90;;;;;;5015203;28;20473;-70
2021/10/06 04:53:10;;;;;;;1.83;1.33;;;11.40;99.90;;;;;;5015026;28;20457;-71
2021/10/06 04:55:38;;;;;;;5.23;1.53;;;11.40;99.90;;;;;;5014813;28;20931;-70
2021/10/06 04:58:05;;;;;;;1.73;1.63;;;11.40;99.90;;;;;;5014838;28;20991;-71
2021/10/06 05:00:32;;;;;;;3.10;1.77;;;11.50;99.90;;;;;;5014602;28;20488;-71
2021/10/06 05:03:06;;;;;;;2.00;1.30;;;11.40;99.90;;;;;;5021926;28;20459;-71
2021/10/06 05:05:33;;;;;;;3.83;1.90;;;11.40;99.90;;;;;;5023192;28;20527;-71
2021/10/06 05:07:59;;;;;;;2.17;1.37;;;11.30;99.90;;;;;;5021760;28;20457;-72
2021/10/06 05:10:27;;;;;;;2.10;1.50;;;11.30;99.90;;;;;;5015339;28;20452;-73
2021/10/06 05:12:54;;;;;;;1.37;1.27;;;11.40;99.90;;;;;;5015459;28;20463;-73
2021/10/06 05:15:21;;;;;;;2.03;1.33;;;11.40;99.90;;;;;;5015189;28;20472;-73
2021/10/06 05:17:48;;;;;;;4.80;1.43;;;11.50;99.90;;;;;;5015099;28;20453;-74
2021/10/06 05:20:15;;;;;;;1.73;1.20;;;11.50;99.90;;;;;;5014987;28;20455;-74
2021/10/06 05:22:41;;;;;;;1.43;1.17;;;11.50;99.90;;;;;;5014866;28;20460;-73
2021/10/06 05:25:09;;;;;;;2.40;1.23;;;11.60;99.90;;;;;;5014884;28;20818;-73
2021/10/06 05:27:37;;;;;;;4.93;1.47;;;11.60;99.90;;;;;;5014498;28;20452;-74
2021/10/06 05:30:05;;;;;;;1.50;1.40;;;11.60;99.90;;;;;;5015390;28;20461;-73
2021/10/06 05:32:32;;;;;;;3.60;1.27;;;11.70;99.90;;;;;;5014651;28;20472;-74
2021/10/06 05:34:59;;;;;;;1.50;1.40;;;11.70;99.90;;;;;;5014322;28;20811;-73
2021/10/06 05:37:27;;;;;;;3.07;1.50;;;11.70;99.90;;;;;;5014801;28;20456;-73
2021/10/06 05:39:54;;;;;;;2.13;1.40;;;11.70;99.90;;;;;;5014762;28;20460;-72
2021/10/06 05:42:21;;;;;;;1.77;1.67;;;11.70;99.90;;;;;;5014492;28;20879;-74
2021/10/06 05:44:49;;;;;;;1.03;1.00;;;11.60;99.90;;;;;;5016191;28;20787;-73
2021/10/06 05:47:16;;;;;;;2.40;1.60;;;11.70;99.90;;;;;;5017667;28;20468;-73
2021/10/06 05:49:42;;;;;;;3.90;1.50;;;11.70;99.90;;;;;;5019304;28;20452;-73
2021/10/06 05:52:09;;;;;;;1.73;1.50;;;11.70;99.90;;;;;;5019370;28;20472;-73
2021/10/06 05:54:36;;;;;;;1.37;1.30;;;11.70;99.90;;;;;;5018989;28;20477;-73
2021/10/06 05:57:03;;;;;;;2.50;1.40;;;11.70;99.90;;;;;;5019168;28;20461;-74
2021/10/06 05:59:31;;;;;;;1.53;1.20;;;11.70;99.90;;;;;;5019255;28;20457;-73
2021/10/06 06:01:59;;;;;;;2.53;1.00;;;11.70;99.90;;;;;;5019067;28;20491;-73
2021/10/06 06:04:27;;;;;;;5.27;1.60;;;11.80;99.90;;;;;;5019460;28;20453;-74
2021/10/06 06:06:53;;;;;;;4.03;1.33;;;11.70;99.90;;;;;;5019837;28;20453;-73
2021/10/06 06:09:21;;;;;;;1.83;1.00;;;11.60;99.90;;;;;;5020066;28;20448;-73
2021/10/06 06:11:48;;;;;;;1.90;1.80;;;11.60;99.90;;;;;;5019810;28;20482;-74
2021/10/06 06:14:15;;;;;;;1.90;1.30;;;11.60;99.90;;;;;;5019136;28;20452;-73
2021/10/06 06:16:42;;;;;;;3.73;1.70;;;11.80;99.90;;;;;;5019239;28;20556;-72
2021/10/06 06:19:10;;;;;;;3.20;1.60;;;11.90;99.90;;;;;;5019378;28;20463;-73
2021/10/06 06:21:36;;;;;;;2.97;1.23;;;12.00;99.90;;;;;;5017581;28;20882;-72
2021/10/06 06:24:03;;;;;;;2.43;1.40;;;12.20;99.90;;;;;;5018560;28;20452;-73
2021/10/06 06:26:30;;;;;;;1.83;1.60;;;12.30;99.90;;;;;;5018331;28;20871;-73
2021/10/06 06:28:57;;;;;;;2.27;1.30;;;12.40;99.90;;;;;;5018758;28;20456;-74
2021/10/06 06:31:24;;;;;;;3.13;2.07;;;12.30;99.90;;;;;;5018485;28;20477;-74
2021/10/06 06:33:51;;;;;;;1.30;1.20;;;12.30;99.90;;;;;;5024847;28;20467;-73
2021/10/06 06:36:19;;;;;;;2.10;1.20;;;12.40;99.90;;;;;;5020980;28;20997;-73
2021/10/06 06:38:45;;;;;;;5.37;1.70;;;12.60;99.90;;;;;;5017617;28;20961;-73
2021/10/06 06:41:12;;;;;;;3.63;1.33;;;12.80;99.90;;;;;;5017885;28;20483;-73
2021/10/06 06:43:39;;;;;;;2.60;1.23;;;12.80;99.90;;;;;;5017611;28;20456;-73
2021/10/06 06:46:06;;;;;;;2.00;1.27;;;12.80;99.90;;;;;;5017662;28;20453;-73
2021/10/06 06:48:33;;;;;;;1.20;1.10;;;12.90;99.90;;;;;;5017384;28;20912;-73
2021/10/06 06:50:59;;;;;;;1.10;1.10;;;13.00;99.90;;;;;;5017288;28;20472;-74
2021/10/06 06:53:28;;;;;;;1.73;1.60;;;12.90;99.90;;;;;;5017599;28;20460;-74
2021/10/06 06:55:55;;;;;;;3.47;1.80;;;12.80;99.90;;;;;;5017507;28;20484;-73
2021/10/06 06:58:23;;;;;;;3.37;1.13;;;12.70;99.90;;;;;;5017032;28;20460;-74
2021/10/06 07:00:50;;;;;;;3.67;1.43;;;12.50;99.90;;;;;;5017124;28;20489;-74
2021/10/06 07:03:17;;;;;;;1.53;1.23;;;12.40;99.90;;;;;;5017192;28;20456;-74
2021/10/06 07:05:44;;;;;;;3.10;1.40;;;12.40;99.90;;;;;;5018171;28;20465;-73
2021/10/06 07:08:11;;;;;;;1.70;1.60;;;12.40;99.90;;;;;;5018462;28;20459;-74
2021/10/06 07:10:40;;;;;;;1.47;1.00;;;12.40;99.90;;;;;;5017389;28;20480;-74
2021/10/06 07:13:06;;;;;;;3.00;1.30;;;12.10;99.90;;;;;;5017107;28;20456;-74
2021/10/06 07:15:33;;;;;;;2.10;1.40;;;12.20;99.90;;;;;;5016699;28;20472;-74
2021/10/06 07:18:00;;;;;;;4.07;0.90;;;12.20;99.90;;;;;;5017241;28;20828;-73
2021/10/06 07:20:27;;;;;;;1.90;1.20;;;12.20;99.90;;;;;;5017074;28;20484;-74
2021/10/06 07:22:54;;;;;;;8.93;1.60;;;12.20;99.90;;;;;;5017083;28;20457;-74
2021/10/06 07:25:20;;;;;;;2.53;1.20;;;12.20;99.90;;;;;;5017227;28;20489;-74
2021/10/06 07:27:49;;;;;;;3.43;1.43;;;12.30;99.90;;;;;;5025071;28;20460;-74
2021/10/06 07:30:15;;;;;;;7.03;1.30;;;12.40;99.90;;;;;;5025155;28;20457;-74
2021/10/06 07:32:43;;;;;;;3.23;1.10;;;12.50;99.90;;;;;;5016950;28;20460;-74
2021/10/06 07:35:10;;;;;;;1.47;1.37;;;12.50;99.90;;;;;;5017434;28;20481;-74
2021/10/06 07:37:37;;;;;;;3.30;1.13;;;12.60;99.90;;;;;;5016543;28;20962;-74
2021/10/06 07:40:05;;;;;;;1.50;0.97;;;12.70;99.90;;;;;;5016166;28;20952;-74
2021/10/06 07:42:31;;;;;;;2.10;1.33;;;12.70;99.90;;;;;;5016416;28;20479;-73
2021/10/06 07:44:59;;;;;;;2.73;1.03;;;12.90;99.90;;;;;;5016833;28;20456;-74
2021/10/06 07:47:26;;;;;;;0.97;0.93;;;13.00;99.90;;;;;;5016796;28;20483;-74
2021/10/06 07:49:53;;;;;;;1.83;1.23;;;13.10;99.90;;;;;;5016447;28;20456;-74
2021/10/06 07:52:20;;;;;;;2.80;1.40;;;13.10;99.90;;;;;;5016313;28;20480;-74
2021/10/06 07:54:47;;;;;;;4.40;1.20;;;13.10;99.90;;;;;;5016030;28;20944;-74
2021/10/06 07:57:14;;;;;;;2.50;1.50;;;13.10;99.90;;;;;;5016167;28;20460;-74
2021/10/06 07:59:41;;;;;;;2.20;1.67;;;13.10;99.90;;;;;;5016196;28;20533;-74
2021/10/06 08:02:10;;;;;;;2.80;1.77;;;13.10;99.90;;;;;;5016274;28;20817;-73
2021/10/06 08:04:37;;;;;;;3.50;1.87;;;13.20;99.90;;;;;;5015903;28;20457;-73
2021/10/06 08:07:04;;;;;;;4.57;1.03;;;13.20;99.90;;;;;;5016589;28;20459;-73
2021/10/06 08:09:30;;;;;;;2.07;1.30;;;13.10;99.90;;;;;;5015244;28;20453;-73
2021/10/06 08:11:57;;;;;;;1.93;1.27;;;13.20;99.90;;;;;;5015451;28;20477;-73
2021/10/06 08:14:24;;;;;;;4.20;1.40;;;13.30;99.90;;;;;;5015866;28;20460;-73
2021/10/06 08:16:51;;;;;;;1.93;1.30;;;13.40;99.90;;;;;;5015653;28;20481;-72
2021/10/06 08:19:19;;;;;;;1.73;1.10;;;13.50;99.90;;;;;;5015907;28;20459;-73
2021/10/06 08:21:47;;;;;;;2.40;1.33;;;13.50;99.90;;;;;;5015690;28;20479;-73
2021/10/06 08:24:13;;;;;;;4.10;1.30;;;13.50;99.90;;;;;;5015433;28;20495;-73
2021/10/06 08:26:40;;;;;;;1.47;1.37;;;13.50;99.90;;;;;;5015370;28;20958;-73
2021/10/06 08:29:07;;;;;;;1.37;1.03;;;13.50;99.90;;;;;;5015649;28;20479;-73
2021/10/06 08:31:34;;;;;;;5.57;1.00;;;13.50;99.90;;;;;;5016128;28;20473;-73
2021/10/06 08:34:01;;;;;;;2.97;1.17;;;13.50;99.90;;;;;;5015479;28;20467;-74
2021/10/06 08:36:29;;;;;;;2.60;1.30;;;13.50;99.90;;;;;;5015188;28;20826;-74
2021/10/06 08:38:56;;;;;;;4.37;1.47;;;13.50;99.90;;;;;;5015176;28;20460;-73
2021/10/06 08:41:23;;;;;;;3.40;1.33;;;13.50;99.90;;;;;;5014703;28;21001;-74
2021/10/06 08:43:51;;;;;;;8.80;1.80;;;13.40;99.90;;;;;;5016305;28;20479;-74
2021/10/06 08:46:18;;;;;;;2.17;1.10;;;13.50;99.90;;;;;;5016286;28;20439;-74
2021/10/06 08:48:45;;;;;;;3.27;1.70;;;13.50;99.90;;;;;;5015921;28;20456;-74
2021/10/06 08:51:11;;;;;;;2.20;1.10;;;13.40;99.90;;;;;;5015362;28;20984;-74
2021/10/06 08:53:40;;;;;;;4.67;1.83;;;13.40;99.90;;;;;;5015667;28;20480;-73
2021/10/06 08:56:07;;;;;;;2.30;1.50;;;13.50;99.90;;;;;;5015546;28;20503;-73
2021/10/06 08:58:33;;;;;;;4.87;1.40;;;13.60;99.90;;;;;;5015206;28;20460;-73
2021/10/06 09:01:01;;;;;;;2.90;1.20;;;13.80;99.90;;;;;;5014854;28;20988;-73
2021/10/06 09:03:30;;;;;;;2.40;1.40;;;13.90;99.90;;;;;;5015107;28;20456;-73
2021/10/06 09:06:04;;;;;;;2.40;1.37;;;14.00;99.90;;;;;;5015526;28;20460;-73
2021/10/06 09:08:32;;;;;;;6.07;2.00;;;14.10;99.90;;;;;;5035365;28;20462;-74
2021/10/06 09:11:01;;;;;;;6.13;2.33;;;14.30;99.90;;;;;;5025361;28;20473;-73
2021/10/06 09:13:31;;;;;;;4.63;1.27;;;14.40;99.90;;;;;;5015134;28;20511;-73
2021/10/06 09:15:59;;;;;;;2.70;1.77;;;14.40;99.90;;;;;;5014093;28;21012;-74
2021/10/06 09:18:27;;;;;;;4.20;1.00;;;14.50;99.90;;;;;;5014676;28;20492;-74
2021/10/06 09:20:57;;;;;;;2.13;1.17;;;14.60;99.90;;;;;;5014233;28;20484;-74
2021/10/06 09:23:24;;;;;;;2.93;1.80;;;14.70;99.90;;;;;;5014758;28;20452;-73
2021/10/06 09:25:53;;;;;;;3.40;1.50;;;15.00;99.90;;;;;;5014626;28;20970;-73
2021/10/06 09:28:24;;;;;;;1.60;1.43;;;15.50;99.90;;;;;;5014404;28;20457;-73
2021/10/06 09:30:57;;;;;;;3.87;1.50;;;16.20;99.90;;;;;;5014202;28;20980;-73
2021/10/06 09:33:24;;;;;;;4.00;1.30;;;16.80;99.90;;;;;;5015424;28;20459;-72
2021/10/06 09:36:08;;;;;;;2.73;1.20;;;17.20;99.90;;;;;;5016083;28;20503;-72
2021/10/06 09:38:43;;;;;;;3.07;1.40;;;17.20;99.90;;;;;;5014593;28;20472;-73
2021/10/06 09:41:41;;;;;;;5.13;2.20;;;17.00;99.90;;;;;;5014693;28;20477;-73
2021/10/06 09:44:12;;;;;;;2.70;1.87;;;16.90;99.90;;;;;;4973636;28;20618;-72
2021/10/06 09:46:52;;;;;;;2.93;1.10;;;16.90;99.90;;;;;;5006302;28;20453;-73
2021/10/06 09:49:21;;;;;;;1.67;1.17;;;16.70;99.90;;;;;;5014662;28;20437;-74
2021/10/06 09:51:49;;;;;;;5.03;1.10;;;16.70;99.90;;;;;;5016170;28;20469;-73
2021/10/06 09:54:16;;;;;;;4.07;1.70;;;16.60;99.90;;;;;;5017953;28;20830;-73
2021/10/06 09:56:44;;;;;;;2.87;1.43;;;16.70;99.90;;;;;;5015139;28;20477;-73
2021/10/06 09:59:14;;;;;;;4.80;1.40;;;16.70;99.90;;;;;;5014747;28;20818;-72
2021/10/06 10:01:41;;;;;;;5.67;1.90;;;16.50;99.90;;;;;;5014138;28;21022;-73
2021/10/06 10:04:09;;;;;;;3.60;1.30;;;16.60;99.90;;;;;;5014540;28;20449;-73
2021/10/06 10:06:37;;;;;;;3.07;1.23;;;17.00;99.90;;;;;;5014334;28;20449;-73
2021/10/06 10:09:06;;;;;;;5.73;1.60;;;17.20;99.90;;;;;;5014346;28;20453;-73
2021/10/06 10:11:35;;;;;;;7.13;1.90;;;17.50;99.90;;;;;;5014358;28;20473;-73
2021/10/06 10:14:03;;;;;;;6.13;1.30;;;17.70;99.90;;;;;;5014432;28;20453;-73
2021/10/06 10:16:32;;;;;;;3.27;1.40;;;17.60;99.90;;;;;;5014210;28;20504;-73
2021/10/06 10:19:04;;;;;;;6.83;1.80;;;17.30;99.90;;;;;;5017299;28;20464;-73
2021/10/06 10:21:32;;;;;;;4.43;1.60;;;17.20;99.90;;;;;;5025600;28;20473;-73
2021/10/06 10:24:10;;;;;;;4.77;1.60;;;18.40;99.90;;;;;;5020854;28;20768;-73
2021/10/06 10:26:37;;;;;;;2.30;1.07;;;20.00;99.90;;;;;;5014589;28;20440;-73
2021/10/06 10:29:32;;;;;;;5.03;1.63;;;21.50;99.90;;;;;;5014027;28;20463;-73
2021/10/06 10:32:06;;;;;;;2.50;1.03;;;23.10;96.30;;;;;;5014316;28;20469;-73
2021/10/06 10:35:02;;;;;;;4.33;1.37;;;23.20;92.80;;;;;;5017328;28;20437;-73
2021/10/06 10:38:14;;;;;;;2.43;1.10;;;22.70;91.40;;;;;;5017879;28;20986;-73
2021/10/06 10:41:01;;;;;;;1.20;1.07;;;21.70;91.50;;;;;;5016827;28;20503;-73
2021/10/06 10:43:30;;;;;;;1.70;1.10;;;20.90;94.30;;;;;;5017151;28;20495;-72
2021/10/06 10:46:13;;;;;;;3.10;1.33;;;20.30;95.90;;;;;;5017359;28;20528;-73
2021/10/06 10:49:01;;;;;;;4.60;1.60;;;20.30;98.20;;;;;;5017429;28;20433;-73
2021/10/06 10:51:46;;;;;;;2.60;1.23;;;20.70;95.90;;;;;;5017639;28;20511;-72
2021/10/06 10:54:30;;;;;;;3.13;1.20;;;20.60;96.30;;;;;;5017489;28;20440;-72
2021/10/06 10:56:56;;;;;;;2.87;1.70;;;20.30;97.50;;;;;;5017243;28;20461;-73
2021/10/06 10:59:24;;;;;;;5.30;1.33;;;20.10;96.70;;;;;;5016691;28;20912;-73
2021/10/06 11:01:54;;;;;;;5.00;1.63;;;19.70;97.70;;;;;;5016506;28;20489;-73
2021/10/06 11:04:25;;;;;;;2.23;1.30;;;19.40;98.70;;;;;;5017482;28;20459;-72
2021/10/06 11:06:54;;;;;;;2.80;1.30;;;19.10;98.70;;;;;;5019083;28;20440;-73
2021/10/06 11:09:42;;;;;;;3.97;1.43;;;18.80;98.00;;;;;;5017020;28;20456;-73
2021/10/06 11:12:28;;;;;;;2.77;1.50;;;18.50;99.90;;;;;;5016578;28;21010;-73
2021/10/06 11:15:28;;;;;;;2.63;1.20;;;18.10;99.90;;;;;;5017062;28;20453;-72
2021/10/06 11:18:25;;;;;;;1.87;1.20;;;17.60;99.90;;;;;;5016658;28;20516;-73
2021/10/06 11:20:58;;;;;;;2.20;1.63;;;17.10;99.90;;;;;;4993641;28;20535;-71
2021/10/06 11:23:44;;;;;;;3.30;1.30;;;16.70;99.90;;;;;;5017205;28;20524;-72
2021/10/06 11:26:13;;;;;;;3.90;1.57;;;16.20;99.90;;;;;;5016702;28;20904;-73
2021/10/06 11:28:42;;;;;;;3.27;1.13;;;16.20;99.90;;;;;;5017015;28;20963;-73
2021/10/06 11:31:10;;;;;;;4.43;1.87;;;16.10;99.90;;;;;;5016696;28;20477;-73
2021/10/06 11:33:37;;;;;;;1.10;1.00;;;16.40;99.90;;;;;;5016572;28;20459;-73
2021/10/06 11:36:12;;;;;;;4.67;1.53;;;16.70;99.90;;;;;;5016519;28;20548;-72
2021/10/06 11:38:39;;;;;;;3.07;1.07;;;17.10;99.90;;;;;;5016638;28;20471;-72
2021/10/06 11:41:06;;;;;;;1.33;1.10;;;17.40;99.90;;;;;;5015836;28;20480;-73
2021/10/06 11:43:42;;;;;;;1.30;0.90;;;17.80;99.90;;;;;;5015500;28;20947;-73
2021/10/06 11:46:13;;;;;;;3.07;1.03;;;18.20;99.90;;;;;;5015844;28;20448;-73
2021/10/06 11:48:39;;;;;;;1.93;1.07;;;18.50;99.90;;;;;;5016647;28;20434;-73
2021/10/06 11:51:06;;;;;;;1.30;1.10;;;18.80;99.90;;;;;;5015911;28;20472;-73
2021/10/06 11:53:43;;;;;;;2.40;0.83;;;18.90;99.90;;;;;;5016202;28;20456;-73
2021/10/06 11:56:10;;;;;;;4.17;1.10;;;18.80;99.90;;;;;;5016220;28;20437;-73
2021/10/06 11:58:40;;;;;;;3.07;1.57;;;18.40;99.90;;;;;;5016792;28;20464;-73
2021/10/06 12:01:08;;;;;;;2.67;1.37;;;18.40;99.90;;;;;;5015833;28;20492;-73
2021/10/06 12:03:39;;;;;;;1.90;1.33;;;18.60;99.90;;;;;;5015627;28;20962;-73
2021/10/06 12:06:07;;;;;;;2.00;1.10;;;18.70;99.90;;;;;;5015559;28;20453;-73
2021/10/06 12:08:34;;;;;;;2.57;0.70;;;18.70;99.90;;;;;;5015702;28;20453;-74
2021/10/06 12:11:04;;;;;;;1.53;0.83;;;18.90;99.90;;;;;;5015344;28;20833;-73
2021/10/06 12:13:37;;;;;;;1.07;0.97;;;19.10;99.90;;;;;;5016232;28;20457;-73
2021/10/06 12:16:22;;;;;;;0.93;0.80;;;19.40;99.90;;;;;;5015712;28;20471;-73
2021/10/06 12:18:53;;;;;;;1.87;1.00;;;19.50;99.90;;;;;;5015926;28;20459;-73
2021/10/06 12:21:20;;;;;;;6.80;1.53;;;19.70;99.90;;;;;;5015747;28;20473;-74
2021/10/06 12:23:47;;;;;;;1.77;0.93;;;19.80;99.90;;;;;;5016220;28;20936;-73
2021/10/06 12:26:15;;;;;;;1.00;0.90;;;19.60;99.90;;;;;;5016596;28;20459;-74
2021/10/06 12:28:52;;;;;;;1.33;0.80;;;19.60;99.90;;;;;;5015775;28;20818;-73
2021/10/06 12:31:24;;;;;;;2.03;1.10;;;19.10;98.60;;;;;;5016859;28;20487;-73
2021/10/06 12:34:03;;;;;;;1.27;0.80;;;18.30;99.30;;;;;;5017609;28;20434;-73
2021/10/06 12:36:30;;;;;;;1.87;0.70;;;17.70;99.90;;;;;;5023532;28;20465;-74
2021/10/06 12:38:57;;;;;;;1.83;1.10;;;17.20;99.90;;;;;;5023431;28;20453;-73
2021/10/06 12:41:28;;;;;;;2.87;0.77;;;17.00;99.90;;;;;;5018041;28;20473;-73
2021/10/06 12:43:54;;;;;;;2.10;0.80;;;17.10;99.90;;;;;;5016845;28;20491;-73
2021/10/06 12:46:24;;;;;;;1.30;0.70;;;17.20;99.90;;;;;;5017158;28;20924;-73
2021/10/06 12:48:52;;;;;;;2.80;0.90;;;17.30;99.90;;;;;;5017455;28;20464;-72
2021/10/06 12:51:25;;;;;;;1.27;0.80;;;17.40;99.90;;;;;;5017388;28;20476;-73
2021/10/06 12:53:54;;;;;;;2.47;0.70;;;17.90;99.90;;;;;;5017109;28;20440;-73
2021/10/06 12:56:30;;;;;;;1.00;0.70;;;18.00;99.90;;;;;;5015708;28;20453;-73
2021/10/06 12:58:58;;;;;;;2.30;0.90;;;18.30;99.90;;;;;;5016143;28;20445;-73
2021/10/06 13:01:26;;;;;;;1.87;0.67;;;18.30;99.90;;;;;;5017737;28;20488;-73
2021/10/06 13:03:52;;;;;;;0.60;0.50;;;18.40;99.60;;;;;;5015834;28;20460;-73
2021/10/06 13:06:19;;;;;;;3.00;0.80;;;18.40;98.70;;;;;;5015368;28;20453;-73
2021/10/06 13:08:50;;;;;;;1.90;0.80;;;18.10;97.80;;;;;;5015759;28;20457;-73
2021/10/06 13:11:16;;;;;;;1.60;0.50;;;17.90;99.80;;;;;;5015693;28;20523;-72
2021/10/06 13:13:45;;;;;;;2.07;0.90;;;17.90;99.90;;;;;;5018350;28;20453;-72
2021/10/06 13:16:12;;;;;;;1.60;0.87;;;17.80;99.90;;;;;;5015060;28;20492;-73
2021/10/06 13:18:39;;;;;;;0.70;0.70;;;18.20;99.90;;;;;;5014669;28;20483;-73
2021/10/06 13:21:07;;;;;;;1.63;0.80;;;18.30;99.90;;;;;;5014891;28;20484;-72
2021/10/06 13:23:35;;;;;;;1.50;0.73;;;18.40;99.90;;;;;;5014371;28;20959;-72
2021/10/06 13:26:04;;;;;;;1.57;0.83;;;18.20;99.90;;;;;;5014540;28;20457;-73
2021/10/06 13:28:31;;;;;;;2.23;0.80;;;18.00;99.90;;;;;;5014963;28;20807;-73
2021/10/06 13:30:59;;;;;;;3.83;0.80;;;18.00;99.90;;;;;;5015202;28;20838;-73
2021/10/06 13:33:26;;;;;;;1.83;0.90;;;17.80;99.90;;;;;;5015277;28;20468;-73
2021/10/06 13:35:53;;;;;;;2.10;1.03;;;17.70;99.90;;;;;;5014517;28;20465;-73
2021/10/06 13:38:20;;;;;;;0.70;0.70;;;17.80;99.90;;;;;;5014413;28;20477;-73
2021/10/06 13:40:47;;;;;;;1.70;0.80;;;17.60;99.90;;;;;;5014167;28;20516;-72
2021/10/06 13:43:14;;;;;;;1.00;0.70;;;17.70;99.90;;;;;;5013896;28;20936;-72
2021/10/06 13:45:41;;;;;;;3.60;1.10;;;17.50;99.90;;;;;;5014494;28;20468;-72
2021/10/06 13:48:09;;;;;;;0.90;0.90;;;17.40;99.90;;;;;;5014601;28;20457;-72
2021/10/06 13:50:36;;;;;;;1.87;1.43;;;17.40;99.90;;;;;;5014345;28;20484;-72
2021/10/06 13:53:04;;;;;;;1.73;1.00;;;17.20;99.90;;;;;;5014427;28;20456;-72
2021/10/06 13:55:30;;;;;;;2.77;1.40;;;17.20;99.90;;;;;;5015401;28;20533;-72
2021/10/06 13:57:57;;;;;;;2.83;0.70;;;17.20;99.90;;;;;;5014252;28;20477;-72
2021/10/06 14:00:24;;;;;;;1.90;1.17;;;17.10;99.90;;;;;;5014065;28;20459;-72
2021/10/06 14:02:51;;;;;;;1.13;0.70;;;17.00;99.90;;;;;;5014327;28;20437;-72
2021/10/06 14:05:19;;;;;;;1.00;0.90;;;17.00;99.90;;;;;;5014665;28;20967;-72
2021/10/06 14:07:46;;;;;;;1.00;0.77;;;16.90;99.90;;;;;;5020117;28;20543;-72
2021/10/06 14:10:13;;;;;;;2.10;0.80;;;16.90;99.90;;;;;;5022362;28;20459;-72
2021/10/06 14:12:41;;;;;;;3.20;1.10;;;16.70;99.90;;;;;;5018226;28;20475;-72
2021/10/06 14:15:09;;;;;;;3.57;1.27;;;16.70;99.90;;;;;;5020307;28;20460;-72
2021/10/06 14:17:35;;;;;;;3.00;1.40;;;16.70;99.90;;;;;;5019112;28;20975;-72
2021/10/06 14:20:02;;;;;;;2.50;1.20;;;16.70;99.90;;;;;;5018778;28;20460;-72
2021/10/06 14:22:30;;;;;;;1.13;0.87;;;16.60;99.90;;;;;;5019088;28;20479;-72
2021/10/06 14:24:57;;;;;;;4.27;1.20;;;16.60;99.90;;;;;;5018384;28;20944;-72
2021/10/06 14:27:24;;;;;;;1.70;1.00;;;16.50;99.90;;;;;;5018713;28;20453;-72
2021/10/06 14:29:51;;;;;;;2.30;0.90;;;16.20;99.90;;;;;;5018562;28;20453;-72
2021/10/06 14:32:18;;;;;;;1.80;0.90;;;16.10;99.90;;;;;;5018327;28;20480;-72
2021/10/06 14:34:45;;;;;;;1.53;1.10;;;16.00;99.90;;;;;;5018255;28;20507;-72
2021/10/06 14:37:12;;;;;;;1.43;1.20;;;16.00;99.90;;;;;;5017870;28;21010;-72
2021/10/06 14:39:40;;;;;;;1.87;1.10;;;15.80;99.90;;;;;;5018225;28;20463;-72
2021/10/06 14:42:07;;;;;;;3.37;1.17;;;15.80;99.90;;;;;;5017732;28;20531;-72
2021/10/06 14:44:33;;;;;;;4.40;0.97;;;15.80;99.90;;;;;;5017924;28;20460;-72
2021/10/06 14:47:00;;;;;;;1.03;0.93;;;15.70;99.90;;;;;;5017830;28;20456;-72
2021/10/06 14:49:27;;;;;;;2.30;1.03;;;15.50;99.90;;;;;;5017750;28;20464;-73
2021/10/06 14:51:54;;;;;;;1.00;0.77;;;15.50;99.90;;;;;;5017541;28;20492;-72
2021/10/06 14:54:20;;;;;;;2.00;1.10;;;15.50;99.90;;;;;;5017854;28;20456;-72
2021/10/06 14:56:49;;;;;;;4.10;1.10;;;15.40;99.90;;;;;;5017712;28;20464;-72
2021/10/06 14:59:19;;;;;;;1.40;1.30;;;15.40;99.90;;;;;;5016811;28;20488;-72
2021/10/06 15:01:47;;;;;;;1.30;0.90;;;15.40;99.90;;;;;;5016667;28;20487;-72
2021/10/06 15:04:14;;;;;;;1.53;1.33;;;15.20;99.90;;;;;;5017177;28;21007;-72
2021/10/06 15:06:45;;;;;;;2.77;1.23;;;15.00;99.90;;;;;;5017368;28;20453;-72
2021/10/06 15:09:13;;;;;;;1.90;1.03;;;14.90;99.90;;;;;;5017248;28;20889;-72
2021/10/06 15:11:40;;;;;;;4.20;1.10;;;14.90;99.90;;;;;;5017231;28;20551;-72
2021/10/06 15:14:08;;;;;;;1.03;0.90;;;14.90;99.90;;;;;;5017422;28;20433;-71
2021/10/06 15:16:35;;;;;;;2.50;0.80;;;14.90;99.90;;;;;;5017050;28;21005;-71
2021/10/06 15:19:01;;;;;;;1.13;1.03;;;14.90;99.90;;;;;;5016206;28;20481;-72
2021/10/06 15:21:29;;;;;;;2.13;1.20;;;14.90;99.90;;;;;;5016572;28;20980;-72
2021/10/06 15:23:56;;;;;;;4.37;1.07;;;14.90;99.90;;;;;;5016308;28;20456;-73
2021/10/06 15:26:22;;;;;;;1.17;0.97;;;15.00;99.90;;;;;;5016471;28;20449;-73
2021/10/06 15:28:49;;;;;;;1.63;1.03;;;15.00;99.90;;;;;;5016890;28;20457;-73
2021/10/06 15:31:17;;;;;;;2.00;0.97;;;15.00;99.90;;;;;;5016397;28;20995;-72
2021/10/06 15:33:44;;;;;;;1.40;1.00;;;14.90;99.90;;;;;;5017166;28;20813;-71
2021/10/06 15:36:11;;;;;;;3.07;1.37;;;14.90;99.90;;;;;;5016741;28;20479;-71
2021/10/06 15:38:37;;;;;;;2.50;1.13;;;14.90;99.90;;;;;;5018147;28;20469;-72
2021/10/06 15:41:05;;;;;;;2.63;1.07;;;14.90;99.90;;;;;;5021927;28;20481;-72
2021/10/06 15:43:32;;;;;;;2.00;1.50;;;14.90;99.90;;;;;;5016311;28;20485;-71
2021/10/06 15:45:59;;;;;;;5.17;2.10;;;14.90;99.90;;;;;;5015997;28;20461;-70
2021/10/06 15:48:27;;;;;;;2.33;1.50;;;14.90;99.90;;;;;;5015900;28;20456;-71
2021/10/06 15:50:54;;;;;;;4.27;1.13;;;14.80;99.90;;;;;;5015883;28;20483;-75
2021/10/06 15:53:22;;;;;;;7.60;1.53;;;14.60;99.90;;;;;;5015840;28;20480;-71
2021/10/06 15:55:49;;;;;;;2.77;1.63;;;14.50;99.90;;;;;;5015546;28;20510;-72
2021/10/06 15:58:16;;;;;;;2.40;1.40;;;14.40;99.90;;;;;;5016538;28;20483;-71
2021/10/06 16:00:44;;;;;;;5.03;2.00;;;14.50;99.90;;;;;;5015366;28;20980;-71
2021/10/06 16:03:11;;;;;;;2.63;1.30;;;14.40;99.90;;;;;;5015791;28;20456;-73
2021/10/06 16:05:39;;;;;;;3.97;1.60;;;14.30;99.90;;;;;;5015893;28;20445;-73
2021/10/06 16:08:06;;;;;;;1.63;1.33;;;14.20;99.90;;;;;;5015914;28;20459;-75
2021/10/06 16:10:33;;;;;;;1.50;1.40;;;14.00;99.90;;;;;;5018827;28;20449;-73
2021/10/06 16:13:00;;;;;;;3.07;1.10;;;13.90;99.90;;;;;;5019748;28;20480;-73
2021/10/06 16:15:27;;;;;;;5.40;1.63;;;13.70;99.90;;;;;;5017875;28;20468;-74
2021/10/06 16:17:53;;;;;;;2.30;1.13;;;13.50;99.90;;;;;;5018329;28;20555;-74
2021/10/06 16:20:20;;;;;;;3.60;1.07;;;13.50;99.90;;;;;;5018061;28;20460;-74
2021/10/06 16:22:48;;;;;;;2.37;1.10;;;13.50;99.90;;;;;;5017039;28;20457;-75
2021/10/06 16:25:16;;;;;;;3.20;1.57;;;13.50;99.90;;;;;;5016024;28;20452;-74
2021/10/06 16:27:44;;;;;;;1.10;0.90;;;13.40;99.90;;;;;;5015447;28;20932;-74
2021/10/06 16:30:12;;;;;;;0.90;0.90;;;13.40;99.90;;;;;;5024740;28;20508;-74
2021/10/06 16:32:40;;;;;;;1.80;0.90;;;13.30;99.90;;;;;;5034858;28;20492;-74
2021/10/06 16:35:08;;;;;;;3.63;1.00;;;13.20;99.90;;;;;;5021837;28;20455;-73
2021/10/06 16:37:35;;;;;;;3.57;1.13;;;13.30;99.90;;;;;;5016139;28;20457;-71
2021/10/06 16:40:04;;;;;;;0.90;0.90;;;13.20;99.90;;;;;;5015265;28;20935;-72
2021/10/06 16:42:31;;;;;;;1.80;1.00;;;13.10;99.90;;;;;;5015321;28;20488;-71
2021/10/06 16:44:57;;;;;;;3.27;1.10;;;13.20;99.90;;;;;;5015523;28;20449;-73
2021/10/06 16:47:24;;;;;;;2.57;1.13;;;13.20;99.90;;;;;;5015077;28;20464;-71
2021/10/06 16:49:51;;;;;;;2.23;1.30;;;13.20;99.90;;;;;;5014693;28;20457;-73
2021/10/06 16:52:18;;;;;;;1.23;1.10;;;13.10;99.90;;;;;;5015022;28;20476;-72
2021/10/06 16:54:44;;;;;;;3.90;1.30;;;13.10;99.90;;;;;;5015103;28;20464;-71
2021/10/06 16:57:12;;;;;;;1.13;1.03;;;13.10;99.90;;;;;;5014730;28;20460;-71